< < Back
Terminal Aerodrome Forecast


Current Version              Previous Versions:   1  2  3  4  5  6  7  8  9  

Terminal Aerodrome Forecast

415
FTUS42 KMLB 090206 AAA
TAFDAB
TAF AMD
KDAB 090206Z 0902/0924 22010KT P6SM VCSH SCT040 BKN080
      WS015/25037KT
     FM090400 28016G24KT P6SM BKN050
     FM091700 27020G30KT P6SM BKN050=



Latest METAR

761
SAUS80 KWBC 091600
MTRDAB
METAR KDAB 091553Z 28015G27KT 10SM FEW060 FEW200 11/M04 A3002 RMK AO2 PK
WND 28027/1550 SLP163 T01111039 $


USA.gov is the U.S. government's official web portal to all federal, state and local government web resources and services.